Denmark, Indiana
Current Conditions -  °F | °C
As of 3:53 AM on Wednesday 28 Jan 2015 (Local Time) from KBMG Reporting Station
Clear Clear  
Wind Chill: 16°   Ceiling: Unl
Heat Index: 16°   Visibility: 7mi
Dew Point: 13°   Wind: 0mph
Humidity: 88%   Direction: NA
Pressure: 30.27"   Gusts: NA
Location:  39.2488°N, 86.9879°W
Report Text: KBMG 280853Z AUTO 00000KT 7SM CLR M09/M11 A3027 RMK AO2 SLP263 I1000 I3000 T10891106 51007
Loading
Personal Weather Stations






























Interactive Weather Map New forecast layout! Learn more

10-Day Weather Forecast

Advertisements
Track Severe Weather on mobile